createdAt,value
2022-09-04T00:00:15.825Z,101277.22
2022-09-04T00:03:04.863Z,101284.44
2022-09-04T00:05:47.880Z,101282.75
2022-09-04T00:08:43.586Z,101292.59
2022-09-04T00:11:33.493Z,101292.91
2022-09-04T00:14:20.454Z,101294.88
2022-09-04T00:17:02.055Z,101302.94
2022-09-04T00:19:59.471Z,101301.28
2022-09-04T00:23:06.751Z,101306.50
2022-09-04T00:26:11.578Z,101307.44
2022-09-04T00:28:46.902Z,101311.97
2022-09-04T00:31:52.072Z,101311.03
2022-09-04T00:35:23.334Z,101312.84
2022-09-04T00:38:12.992Z,101321.81
2022-09-04T00:41:03.227Z,101316.59
2022-09-04T00:44:20.469Z,101308.78
2022-09-04T00:47:39.368Z,101316.94
2022-09-04T00:50:07.615Z,101318.97
2022-09-04T00:52:58.334Z,101327.88
2022-09-04T00:56:04.093Z,101328.25
2022-09-04T00:59:05.773Z,101320.34
2022-09-04T01:01:33.362Z,101315.94
2022-09-04T01:04:28.161Z,101322.16
2022-09-04T01:07:17.929Z,101327.66
2022-09-04T01:10:16.048Z,101325.00
2022-09-04T01:13:08.835Z,101326.88
2022-09-04T01:15:46.006Z,101334.94
2022-09-04T01:19:05.004Z,101330.59
2022-09-04T01:21:58.388Z,101333.34
2022-09-04T01:25:05.816Z,101345.84
2022-09-04T01:27:44.158Z,101350.38
2022-09-04T01:30:20.792Z,101349.41
2022-09-04T01:32:57.417Z,101361.91
2022-09-04T01:35:48.241Z,101357.56
2022-09-04T01:38:37.751Z,101356.91
2022-09-04T01:41:29.119Z,101356.31
2022-09-04T01:43:56.779Z,101360.22
2022-09-04T01:46:55.111Z,101362.06
2022-09-04T01:49:37.758Z,101359.53
2022-09-04T01:52:08.010Z,101362.25
2022-09-04T01:54:58.391Z,101366.78
2022-09-04T01:57:43.670Z,101362.63
2022-09-04T02:00:17.289Z,101372.63
2022-09-04T02:03:10.279Z,101368.38
2022-09-04T02:05:56.250Z,101370.22
2022-09-04T02:08:38.634Z,101365.88
2022-09-04T02:11:18.670Z,101380.06
2022-09-04T02:14:27.536Z,101384.44
2022-09-04T02:17:18.592Z,101383.66
2022-09-04T02:20:05.889Z,101388.16
2022-09-04T02:22:45.182Z,101390.88
2022-09-04T02:25:28.283Z,101389.16
2022-09-04T02:28:07.321Z,101388.44
2022-09-04T02:30:54.757Z,101391.16
2022-09-04T02:34:05.102Z,101392.09
2022-09-04T02:36:50.112Z,101389.50
2022-09-04T02:39:38.485Z,101400.91
2022-09-04T02:42:30.867Z,101401.75
2022-09-04T02:45:13.603Z,101407.06
2022-09-04T02:48:17.966Z,101406.06
2022-09-04T02:51:24.425Z,101410.56
2022-09-04T02:54:19.323Z,101417.63
2022-09-04T02:57:23.333Z,101417.69
2022-09-04T03:00:21.619Z,101420.34
2022-09-04T03:03:16.362Z,101416.81
2022-09-04T03:06:13.461Z,101415.09
2022-09-04T03:09:01.958Z,101421.34
2022-09-04T03:11:45.956Z,101416.94
2022-09-04T03:14:35.904Z,101422.19
2022-09-04T03:17:16.226Z,101422.25
2022-09-04T03:20:00.161Z,101424.84
2022-09-04T03:22:48.621Z,101423.19
2022-09-04T03:25:49.454Z,101419.78
2022-09-04T03:29:01.730Z,101421.66
2022-09-04T03:31:59.759Z,101423.56
2022-09-04T03:34:46.345Z,101420.09
2022-09-04T03:37:31.127Z,101422.91
2022-09-04T03:40:26.773Z,101420.25
2022-09-04T03:43:14.938Z,101424.00
2022-09-04T03:46:08.428Z,101425.06
2022-09-04T03:49:02.275Z,101434.03
2022-09-04T03:51:48.407Z,101427.97
2022-09-04T03:54:54.237Z,101437.97
2022-09-04T03:58:11.188Z,101425.16
2022-09-04T04:01:09.963Z,101440.53
2022-09-04T04:04:10.401Z,101438.09
2022-09-04T04:07:13.363Z,101440.16
2022-09-04T04:10:13.480Z,101449.06
2022-09-04T04:13:14.485Z,101449.84
2022-09-04T04:16:03.169Z,101449.94
2022-09-04T04:18:42.949Z,101455.97
2022-09-04T04:21:13.136Z,101455.06
2022-09-04T04:24:14.660Z,101460.22
2022-09-04T04:27:33.506Z,101465.53
2022-09-04T04:30:14.086Z,101465.66
2022-09-04T04:32:58.083Z,101455.91
2022-09-04T04:35:54.726Z,101470.97
2022-09-04T04:38:34.722Z,101466.66
2022-09-04T04:41:27.235Z,101476.25
2022-09-04T04:44:12.636Z,101471.00
2022-09-04T04:47:01.083Z,101475.47
2022-09-04T04:49:56.997Z,101482.47
2022-09-04T04:52:37.730Z,101483.41
2022-09-04T04:55:42.060Z,101478.13
2022-09-04T04:58:50.132Z,101479.91
2022-09-04T05:01:25.057Z,101480.88
2022-09-04T05:04:24.462Z,101482.78
2022-09-04T05:07:17.766Z,101495.25
2022-09-04T05:10:06.699Z,101490.78
2022-09-04T05:13:25.543Z,101498.69
2022-09-04T05:16:23.379Z,101503.00
2022-09-04T05:19:18.488Z,101501.22
2022-09-04T05:22:13.933Z,101501.16
2022-09-04T05:25:24.398Z,101512.53
2022-09-04T05:28:16.575Z,101516.03
2022-09-04T05:31:02.383Z,101518.53
2022-09-04T05:33:51.449Z,101528.19
2022-09-04T05:36:48.546Z,101532.50
2022-09-04T05:39:54.917Z,101537.69
2022-09-04T05:43:09.956Z,101537.59
2022-09-04T05:45:46.556Z,101540.41
2022-09-04T05:48:46.709Z,101535.03
2022-09-04T05:51:53.158Z,101544.78
2022-09-04T05:55:10.242Z,101549.28
2022-09-04T05:58:16.739Z,101555.50
2022-09-04T06:01:28.222Z,101558.91
2022-09-04T06:04:01.856Z,101557.81
2022-09-04T06:06:53.500Z,101565.47
2022-09-04T06:09:44.645Z,101571.25
2022-09-04T06:12:54.443Z,101571.81
2022-09-04T06:15:50.581Z,101566.28
2022-09-04T06:18:33.193Z,101567.72
2022-09-04T06:21:03.353Z,101574.50
2022-09-04T06:23:59.686Z,101564.41
2022-09-04T06:27:05.976Z,101571.91
2022-09-04T06:30:05.410Z,101576.72
2022-09-04T06:33:02.074Z,101571.84
2022-09-04T06:35:46.998Z,101577.63
2022-09-04T06:38:37.046Z,101580.72
2022-09-04T06:41:37.730Z,101588.25
2022-09-04T06:44:26.947Z,101586.88
2022-09-04T06:47:17.676Z,101592.38
2022-09-04T06:50:05.917Z,101596.22
2022-09-04T06:53:06.752Z,101603.25
2022-09-04T06:55:45.998Z,101601.47
2022-09-04T06:58:51.754Z,101596.28
2022-09-04T07:02:02.204Z,101603.31
2022-09-04T07:05:11.491Z,101603.03
2022-09-04T07:08:46.041Z,101604.38
2022-09-04T07:11:39.922Z,101608.44
2022-09-04T07:14:31.908Z,101610.09
2022-09-04T07:17:18.597Z,101608.19
2022-09-04T07:19:54.924Z,101612.41
2022-09-04T07:22:46.033Z,101607.72
2022-09-04T07:25:32.846Z,101606.31
2022-09-04T07:28:19.629Z,101615.44
2022-09-04T07:31:13.231Z,101615.19
2022-09-04T07:34:11.813Z,101613.22
2022-09-04T07:37:01.486Z,101627.22
2022-09-04T07:39:48.282Z,101622.53
2022-09-04T07:42:31.759Z,101618.75
2022-09-04T07:45:22.494Z,101623.81
2022-09-04T07:48:28.598Z,101620.13
2022-09-04T07:51:10.718Z,101626.84
2022-09-04T07:54:11.438Z,101636.19
2022-09-04T07:57:18.739Z,101624.28
2022-09-04T08:00:13.914Z,101631.91
2022-09-04T08:03:11.791Z,101634.47
2022-09-04T08:06:02.010Z,101644.19
2022-09-04T08:09:17.311Z,101641.44
2022-09-04T08:12:09.287Z,101637.56
2022-09-04T08:14:58.180Z,101637.25
2022-09-04T08:17:47.621Z,101637.69
2022-09-04T08:20:50.454Z,101642.22
2022-09-04T08:23:50.952Z,101649.06
2022-09-04T08:26:33.649Z,101649.19
2022-09-04T08:29:24.146Z,101647.69
2022-09-04T08:32:11.849Z,101651.19
2022-09-04T08:35:18.052Z,101655.69
2022-09-04T08:38:16.220Z,101662.66
2022-09-04T08:41:45.323Z,101657.22
2022-09-04T08:44:45.659Z,101651.06
2022-09-04T08:47:40.236Z,101663.72
2022-09-04T08:50:23.820Z,101665.84
2022-09-04T08:53:47.316Z,101667.44
2022-09-04T08:57:11.849Z,101670.66
2022-09-04T09:00:09.991Z,101668.75
2022-09-04T09:03:05.269Z,101657.03
2022-09-04T09:06:08.943Z,101672.25
2022-09-04T09:09:32.753Z,101667.69
2022-09-04T09:12:28.363Z,101668.44
2022-09-04T09:15:31.084Z,101669.44
2022-09-04T09:18:14.093Z,101664.91
2022-09-04T09:21:28.172Z,101664.06
2022-09-04T09:24:41.588Z,101661.59
2022-09-04T09:27:50.579Z,101658.09
2022-09-04T09:30:23.273Z,101656.50
2022-09-04T09:33:34.296Z,101656.13
2022-09-04T09:36:16.080Z,101654.41
2022-09-04T09:39:08.524Z,101647.59
2022-09-04T09:41:56.018Z,101649.06
2022-09-04T09:45:10.354Z,101658.34
2022-09-04T09:47:57.544Z,101652.53
2022-09-04T09:50:45.279Z,101660.88
2022-09-04T09:53:42.702Z,101660.75
2022-09-04T09:56:58.979Z,101657.53
2022-09-04T09:59:48.640Z,101663.41
2022-09-04T10:02:54.553Z,101658.81
2022-09-04T10:06:16.419Z,101657.56
2022-09-04T10:09:04.931Z,101663.16
2022-09-04T10:12:17.784Z,101652.16
2022-09-04T10:15:46.162Z,101652.47
2022-09-04T10:19:11.432Z,101657.34
2022-09-04T10:22:09.084Z,101655.25
2022-09-04T10:25:13.888Z,101664.22
2022-09-04T10:28:09.724Z,101662.34
2022-09-04T10:31:39.514Z,101666.06
2022-09-04T10:35:09.494Z,101663.91
2022-09-04T10:37:58.249Z,101661.69
2022-09-04T10:41:09.045Z,101663.38
2022-09-04T10:43:57.968Z,101666.88
2022-09-04T10:46:53.884Z,101656.31
2022-09-04T10:49:55.337Z,101662.59
2022-09-04T10:53:09.638Z,101666.88
2022-09-04T10:56:01.939Z,101663.16
2022-09-04T10:59:03.407Z,101663.91
2022-09-04T11:01:53.241Z,101662.19
2022-09-04T11:04:47.240Z,101662.66
2022-09-04T11:07:58.223Z,101659.63
2022-09-04T11:10:54.467Z,101658.56
2022-09-04T11:13:56.242Z,101659.13
2022-09-04T11:16:57.118Z,101658.78
2022-09-04T11:19:34.086Z,101660.47
2022-09-04T11:22:48.262Z,101668.75
2022-09-04T11:26:05.862Z,101652.78
2022-09-04T11:29:41.163Z,101657.34
2022-09-04T11:32:51.058Z,101644.66
2022-09-04T11:36:01.929Z,101665.88
2022-09-04T11:39:10.462Z,101668.56
2022-09-04T11:42:10.737Z,101667.28
2022-09-04T11:45:18.275Z,101661.28
2022-09-04T11:47:57.626Z,101658.13
2022-09-04T11:50:43.298Z,101657.81
2022-09-04T11:53:37.371Z,101657.50
2022-09-04T11:57:03.550Z,101660.72
2022-09-04T12:00:16.968Z,101664.69
2022-09-04T12:03:37.847Z,101665.66
2022-09-04T12:06:35.017Z,101663.97
2022-09-04T12:09:50.873Z,101677.34
2022-09-04T12:12:57.367Z,101658.03
2022-09-04T12:16:18.497Z,101661.53
2022-09-04T12:19:26.952Z,101666.22
2022-09-04T12:22:23.300Z,101664.28
2022-09-04T12:25:36.884Z,101672.56
2022-09-04T12:28:33.650Z,101674.91
2022-09-04T12:31:35.872Z,101675.78
2022-09-04T12:34:37.840Z,101666.25
2022-09-04T12:37:29.531Z,101666.13
2022-09-04T12:40:31.623Z,101662.75
2022-09-04T12:43:03.606Z,101672.47
2022-09-04T12:45:51.621Z,101666.78
2022-09-04T12:48:33.217Z,101670.94
2022-09-04T12:51:16.725Z,101678.91
2022-09-04T12:54:20.488Z,101677.34
2022-09-04T12:57:15.194Z,101670.19
2022-09-04T13:00:02.110Z,101667.38
2022-09-04T13:02:49.525Z,101668.91
2022-09-04T13:06:08.728Z,101675.63
2022-09-04T13:09:15.979Z,101681.88
2022-09-04T13:12:07.578Z,101668.69
2022-09-04T13:15:07.716Z,101678.66
2022-09-04T13:18:17.330Z,101689.09
2022-09-04T13:21:41.482Z,101683.22
2022-09-04T13:24:51.276Z,101679.06
2022-09-04T13:27:41.738Z,101680.34
2022-09-04T13:30:22.030Z,101674.31
2022-09-04T13:33:20.206Z,101677.41
2022-09-04T13:35:55.392Z,101682.09
2022-09-04T13:38:40.719Z,101674.50
2022-09-04T13:42:04.281Z,101681.03
2022-09-04T13:44:59.558Z,101673.06
2022-09-04T13:47:44.989Z,101683.59
2022-09-04T13:50:43.987Z,101683.59
2022-09-04T13:53:52.098Z,101687.34
2022-09-04T13:56:33.000Z,101683.91
2022-09-04T13:59:11.950Z,101688.47
2022-09-04T14:01:47.741Z,101673.91
2022-09-04T14:04:27.732Z,101678.03
2022-09-04T14:07:06.214Z,101683.00
2022-09-04T14:09:44.672Z,101683.44
2022-09-04T14:12:20.006Z,101691.41
2022-09-04T14:15:19.413Z,101685.97
2022-09-04T14:17:55.177Z,101687.25
2022-09-04T14:20:35.026Z,101682.41
2022-09-04T14:23:32.428Z,101687.38
2022-09-04T14:26:26.591Z,101690.28
2022-09-04T14:29:21.082Z,101682.97
2022-09-04T14:32:05.850Z,101684.06
2022-09-04T14:35:02.207Z,101686.00
2022-09-04T14:38:13.539Z,101685.16
2022-09-04T14:40:58.154Z,101684.75
2022-09-04T14:43:59.415Z,101679.50
2022-09-04T14:46:55.773Z,101684.38
2022-09-04T14:49:31.883Z,101681.81
2022-09-04T14:52:19.692Z,101673.81
2022-09-04T14:54:54.232Z,101678.53
2022-09-04T14:57:32.653Z,101678.38
2022-09-04T15:00:15.141Z,101680.13
2022-09-04T15:03:17.465Z,101670.09
2022-09-04T15:05:56.609Z,101689.25
2022-09-04T15:08:36.757Z,101682.13
2022-09-04T15:11:31.178Z,101681.44
2022-09-04T15:14:12.336Z,101680.41
2022-09-04T15:16:39.697Z,101682.41
2022-09-04T15:19:45.415Z,101674.28
2022-09-04T15:22:48.125Z,101675.13
2022-09-04T15:25:18.464Z,101668.84
2022-09-04T15:27:58.395Z,101682.41
2022-09-04T15:30:40.674Z,101679.25
2022-09-04T15:33:19.749Z,101670.66
2022-09-04T15:36:23.962Z,101678.34
2022-09-04T15:38:57.999Z,101672.91
2022-09-04T15:41:47.662Z,101664.53
2022-09-04T15:44:29.188Z,101668.81
2022-09-04T15:47:17.217Z,101672.38
2022-09-04T15:49:58.680Z,101670.13
2022-09-04T15:52:40.243Z,101673.97
2022-09-04T15:55:13.342Z,101673.06
2022-09-04T15:58:05.704Z,101667.41
2022-09-04T16:00:56.501Z,101668.94
2022-09-04T16:03:55.310Z,101675.91
2022-09-04T16:06:44.328Z,101671.50
2022-09-04T16:09:53.514Z,101670.91
2022-09-04T16:12:30.644Z,101675.00
2022-09-04T16:15:12.368Z,101673.97
2022-09-04T16:17:50.075Z,101678.56
2022-09-04T16:20:37.732Z,101679.41
2022-09-04T16:23:10.283Z,101676.88
2022-09-04T16:25:43.514Z,101675.47
2022-09-04T16:28:43.687Z,101672.50
2022-09-04T16:31:39.833Z,101674.84
2022-09-04T16:34:28.584Z,101663.84
2022-09-04T16:37:12.763Z,101675.00
2022-09-04T16:40:17.528Z,101667.72
2022-09-04T16:42:57.519Z,101670.03
2022-09-04T16:45:39.777Z,101674.19
2022-09-04T16:48:43.344Z,101667.69
2022-09-04T16:51:40.388Z,101666.03
2022-09-04T16:54:17.612Z,101671.19
2022-09-04T16:57:12.322Z,101674.59
2022-09-04T16:59:53.260Z,101668.31
2022-09-04T17:02:44.998Z,101671.88
2022-09-04T17:05:35.038Z,101675.28
2022-09-04T17:08:08.558Z,101675.75
2022-09-04T17:11:18.293Z,101676.91
2022-09-04T17:13:56.246Z,101675.06
2022-09-04T17:16:33.448Z,101675.09
2022-09-04T17:19:00.989Z,101672.41
2022-09-04T17:27:21.977Z,101668.88
2022-09-04T17:29:11.752Z,101667.94
2022-09-04T17:29:11.929Z,101669.94
2022-09-04T17:31:45.584Z,101664.78
2022-09-04T17:40:44.000Z,101676.34
2022-09-04T17:40:46.473Z,101671.22
2022-09-04T17:41:39.606Z,101669.75
2022-09-04T17:44:02.933Z,101679.53
2022-09-04T17:46:48.686Z,101690.31
2022-09-04T17:49:22.030Z,101684.56
2022-09-04T17:52:01.152Z,101688.78
2022-09-04T17:54:37.732Z,101681.97
2022-09-04T17:57:37.943Z,101684.41
2022-09-04T18:00:20.235Z,101688.72
2022-09-04T18:03:20.891Z,101688.91
2022-09-04T18:05:57.203Z,101694.88
2022-09-04T18:08:57.235Z,101696.03
2022-09-04T18:11:30.850Z,101697.19
2022-09-04T18:14:11.181Z,101705.34
2022-09-04T18:17:11.910Z,101705.44
2022-09-04T18:19:48.674Z,101706.81
2022-09-04T18:22:33.495Z,101696.69
2022-09-04T18:25:17.801Z,101703.66
2022-09-04T18:28:12.279Z,101713.28
2022-09-04T18:37:10.578Z,101719.63
2022-09-04T18:37:21.339Z,101727.13
2022-09-04T18:37:45.724Z,101726.16
2022-09-04T18:41:10.184Z,101729.59
2022-09-04T18:50:24.435Z,101732.03
2022-09-04T18:50:32.006Z,101731.97
2022-09-04T18:50:43.619Z,101736.97
2022-09-04T18:52:23.202Z,101738.28
2022-09-04T18:55:01.676Z,101743.94
2022-09-04T18:57:49.461Z,101744.00
2022-09-04T19:00:59.460Z,101741.75
2022-09-04T19:03:31.745Z,101750.09
2022-09-04T19:06:12.566Z,101749.28
2022-09-04T19:08:50.038Z,101750.38
2022-09-04T19:11:32.786Z,101754.72
2022-09-04T19:14:11.275Z,101748.44
2022-09-04T19:16:59.235Z,101750.94
2022-09-04T19:19:49.070Z,101761.53
2022-09-04T19:22:28.729Z,101763.53
2022-09-04T19:25:12.938Z,101751.69
2022-09-04T19:27:55.148Z,101751.19
2022-09-04T19:30:35.825Z,101759.59
2022-09-04T19:33:19.369Z,101769.63
2022-09-04T19:36:24.549Z,101767.41
2022-09-04T19:45:54.826Z,101765.50
2022-09-04T19:46:14.682Z,101764.53
2022-09-04T19:46:27.846Z,101757.25
2022-09-04T19:52:38.208Z,101761.59
2022-09-04T19:53:23.204Z,101762.47
2022-09-04T19:56:10.417Z,101765.00
2022-09-04T19:58:46.585Z,101763.91
2022-09-04T20:01:25.737Z,101770.66
2022-09-04T20:04:10.700Z,101771.16
2022-09-04T20:06:55.939Z,101770.81
2022-09-04T20:09:46.058Z,101772.13
2022-09-04T20:12:32.884Z,101769.00
2022-09-04T20:15:18.576Z,101770.44
2022-09-04T20:18:04.360Z,101774.38
2022-09-04T20:20:48.576Z,101775.75
2022-09-04T20:23:35.038Z,101781.50
2022-09-04T20:26:20.102Z,101776.66
2022-09-04T20:28:55.359Z,101780.59
2022-09-04T20:31:45.100Z,101778.38
2022-09-04T20:34:31.990Z,101788.47
2022-09-04T20:37:24.316Z,101783.47
2022-09-04T20:40:36.889Z,101779.41
2022-09-04T20:43:26.762Z,101789.53
2022-09-04T20:51:48.057Z,101786.31
2022-09-04T20:52:49.857Z,101788.47
2022-09-04T20:52:57.428Z,101788.19
2022-09-04T20:55:33.654Z,101796.56
2022-09-04T21:03:12.774Z,101800.69
2022-09-04T21:03:17.612Z,101798.50
2022-09-04T21:05:15.100Z,101790.78
2022-09-04T21:08:10.538Z,101788.44
2022-09-04T21:10:43.073Z,101790.44
2022-09-04T21:13:19.885Z,101794.19
2022-09-04T21:15:47.378Z,101793.56
2022-09-04T21:19:28.317Z,101787.44
2022-09-04T21:22:24.493Z,101801.00
2022-09-04T21:25:28.169Z,101800.41
2022-09-04T21:28:35.669Z,101793.50
2022-09-04T21:31:09.384Z,101796.50
2022-09-04T21:34:10.578Z,101804.63
2022-09-04T21:36:53.383Z,101793.34
2022-09-04T21:39:46.867Z,101794.44
2022-09-04T21:42:51.131Z,101787.56
2022-09-04T21:45:37.145Z,101795.69
2022-09-04T21:48:56.671Z,101794.91
2022-09-04T21:52:08.231Z,101787.19
2022-09-04T21:58:00.495Z,101796.34
2022-09-04T22:02:29.034Z,101801.22
2022-09-04T22:02:40.987Z,101795.22
2022-09-04T22:05:07.110Z,101798.25
2022-09-04T22:09:38.399Z,101798.31
2022-09-04T22:13:39.195Z,101803.75
2022-09-04T22:14:25.479Z,101800.44
2022-09-04T22:16:58.505Z,101798.78
2022-09-04T22:20:02.804Z,101804.13
2022-09-04T22:23:26.080Z,101801.56
2022-09-04T22:26:40.845Z,101800.13
2022-09-04T22:29:39.692Z,101803.84
2022-09-04T22:32:29.127Z,101808.50
2022-09-04T22:35:40.256Z,101813.94
2022-09-04T22:38:32.534Z,101818.50
2022-09-04T22:41:25.180Z,101816.13
2022-09-04T22:44:05.264Z,101828.72
2022-09-04T22:47:26.472Z,101828.06
2022-09-04T22:50:18.983Z,101819.56
2022-09-04T22:53:26.958Z,101812.47
2022-09-04T22:56:07.321Z,101818.84
2022-09-04T22:59:25.756Z,101822.53
2022-09-04T23:02:40.748Z,101825.22
2022-09-04T23:06:32.479Z,101818.31
2022-09-04T23:13:48.524Z,101821.22
2022-09-04T23:13:53.798Z,101822.91
2022-09-04T23:15:50.898Z,101826.69
2022-09-04T23:21:16.619Z,101819.69
2022-09-04T23:26:44.140Z,101815.59
2022-09-04T23:26:53.587Z,101822.47
2022-09-04T23:28:38.522Z,101816.53
2022-09-04T23:32:07.173Z,101820.09
2022-09-04T23:35:14.380Z,101814.94
2022-09-04T23:38:23.421Z,101818.50
2022-09-04T23:41:00.307Z,101812.38
2022-09-04T23:44:25.320Z,101816.78
2022-09-04T23:47:48.769Z,101810.63
2022-09-04T23:50:19.611Z,101817.78
2022-09-04T23:53:34.157Z,101815.03
2022-09-04T23:56:30.448Z,101815.13
2022-09-04T23:59:36.537Z,101820.59
